createdAt,value
2022-08-30T00:02:22.736Z,99.90
2022-08-30T00:04:54.342Z,99.90
2022-08-30T00:07:23.010Z,99.90
2022-08-30T00:09:50.603Z,99.90
2022-08-30T00:12:20.933Z,99.90
2022-08-30T00:14:48.773Z,99.90
2022-08-30T00:17:16.370Z,99.90
2022-08-30T00:19:43.927Z,99.90
2022-08-30T00:22:11.497Z,99.90
2022-08-30T00:24:39.428Z,99.90
2022-08-30T00:27:06.997Z,99.90
2022-08-30T00:29:34.537Z,99.90
2022-08-30T00:32:02.644Z,99.90
2022-08-30T00:34:32.294Z,99.90
2022-08-30T00:37:00.387Z,99.90
2022-08-30T00:39:27.921Z,99.90
2022-08-30T00:41:55.649Z,99.90
2022-08-30T00:44:24.176Z,99.90
2022-08-30T00:46:51.740Z,99.90
2022-08-30T00:49:19.364Z,99.90
2022-08-30T00:51:47.409Z,99.90
2022-08-30T00:54:15.235Z,99.90
2022-08-30T00:56:43.171Z,99.90
2022-08-30T00:59:11.157Z,99.90
2022-08-30T01:01:39.221Z,99.90
2022-08-30T01:04:08.911Z,99.90
2022-08-30T01:06:37.303Z,99.90
2022-08-30T01:09:05.940Z,99.90
2022-08-30T01:11:35.492Z,99.90
2022-08-30T01:14:04.962Z,99.90
2022-08-30T01:16:34.431Z,99.90
2022-08-30T01:19:04.304Z,99.90
2022-08-30T01:21:56.849Z,99.90
2022-08-30T01:24:24.578Z,99.90
2022-08-30T01:26:52.201Z,99.90
2022-08-30T01:29:23.538Z,99.90
2022-08-30T01:31:51.480Z,99.90
2022-08-30T01:34:19.292Z,99.90
2022-08-30T01:36:47.343Z,99.90
2022-08-30T01:39:16.380Z,99.90
2022-08-30T01:41:43.985Z,99.90
2022-08-30T01:44:13.129Z,99.90
2022-08-30T01:46:46.926Z,99.90
2022-08-30T01:49:16.814Z,99.90
2022-08-30T01:51:44.837Z,99.90
2022-08-30T01:54:12.478Z,99.90
2022-08-30T01:56:40.466Z,99.90
2022-08-30T01:59:08.218Z,99.90
2022-08-30T02:01:37.351Z,99.90
2022-08-30T02:04:06.170Z,99.90
2022-08-30T02:06:34.606Z,99.90
2022-08-30T02:09:02.479Z,99.90
2022-08-30T02:11:30.562Z,99.90
2022-08-30T02:13:58.178Z,99.90
2022-08-30T02:16:26.448Z,99.90
2022-08-30T02:18:56.214Z,99.90
2022-08-30T02:21:24.986Z,99.90
2022-08-30T02:23:52.663Z,99.90
2022-08-30T02:26:21.667Z,99.90
2022-08-30T02:28:50.402Z,99.90
2022-08-30T02:31:20.954Z,99.90
2022-08-30T02:33:51.419Z,99.90
2022-08-30T02:36:20.920Z,99.90
2022-08-30T02:38:50.043Z,99.90
2022-08-30T02:41:18.637Z,99.90
2022-08-30T02:43:46.936Z,99.90
2022-08-30T02:46:14.984Z,99.90
2022-08-30T02:48:43.177Z,99.90
2022-08-30T02:51:13.332Z,99.90
2022-08-30T02:53:42.569Z,99.90
2022-08-30T02:56:12.357Z,99.90
2022-08-30T02:58:42.551Z,99.90
2022-08-30T03:01:13.806Z,99.90
2022-08-30T03:03:43.372Z,99.90
2022-08-30T03:06:11.850Z,99.90
2022-08-30T03:08:39.925Z,99.90
2022-08-30T03:11:07.871Z,99.90
2022-08-30T03:13:35.526Z,99.90
2022-08-30T03:16:03.394Z,99.90
2022-08-30T03:18:31.037Z,99.90
2022-08-30T03:20:58.716Z,99.90
2022-08-30T03:23:26.358Z,99.90
2022-08-30T03:25:53.902Z,99.90
2022-08-30T03:28:21.537Z,99.90
2022-08-30T03:30:49.226Z,99.90
2022-08-30T03:33:18.479Z,99.90
2022-08-30T03:35:46.342Z,99.90
2022-08-30T03:38:14.002Z,99.90
2022-08-30T03:40:41.984Z,99.90
2022-08-30T03:43:09.776Z,99.90
2022-08-30T03:45:37.899Z,99.90
2022-08-30T03:48:05.574Z,99.90
2022-08-30T03:50:35.272Z,99.90
2022-08-30T03:53:03.385Z,99.90
2022-08-30T03:55:31.066Z,99.90
2022-08-30T03:57:58.683Z,99.90
2022-08-30T04:00:26.841Z,99.90
2022-08-30T04:02:54.459Z,99.90
2022-08-30T04:05:22.098Z,99.90
2022-08-30T04:07:50.021Z,99.90
2022-08-30T04:10:17.625Z,99.90
2022-08-30T04:12:49.409Z,99.90
2022-08-30T04:15:19.689Z,99.90
2022-08-30T04:17:47.645Z,99.90
2022-08-30T04:20:16.409Z,99.90
2022-08-30T04:22:44.029Z,99.90
2022-08-30T04:25:15.621Z,99.90
2022-08-30T04:27:45.557Z,99.90
2022-08-30T04:30:15.537Z,99.90
2022-08-30T04:32:43.996Z,99.90
2022-08-30T04:35:13.127Z,99.90
2022-08-30T04:37:40.879Z,99.90
2022-08-30T04:40:09.637Z,99.90
2022-08-30T04:42:38.082Z,99.90
2022-08-30T04:45:09.250Z,99.90
2022-08-30T04:47:37.467Z,99.90
2022-08-30T04:50:07.160Z,99.90
2022-08-30T04:52:34.841Z,99.90
2022-08-30T04:55:02.546Z,99.90
2022-08-30T04:57:30.209Z,99.90
2022-08-30T04:59:57.846Z,99.90
2022-08-30T05:02:25.550Z,99.90
2022-08-30T05:05:12.031Z,99.90
2022-08-30T05:07:41.999Z,99.90
2022-08-30T05:10:11.489Z,99.90
2022-08-30T05:12:40.675Z,99.90
2022-08-30T05:15:08.818Z,99.90
2022-08-30T05:17:38.840Z,99.90
2022-08-30T05:20:11.382Z,99.90
2022-08-30T05:22:41.137Z,99.90
2022-08-30T05:25:09.166Z,99.90
2022-08-30T05:27:42.442Z,99.90
2022-08-30T05:30:10.891Z,99.90
2022-08-30T05:32:38.475Z,99.90
2022-08-30T05:35:07.781Z,99.90
2022-08-30T05:37:35.971Z,99.90
2022-08-30T05:40:05.455Z,99.90
2022-08-30T05:42:40.254Z,99.90
2022-08-30T05:45:08.716Z,99.90
2022-08-30T05:47:36.911Z,99.90
2022-08-30T05:50:09.101Z,99.90
2022-08-30T05:52:41.461Z,99.90
2022-08-30T05:55:10.360Z,99.90
2022-08-30T05:57:40.305Z,99.90
2022-08-30T06:00:18.104Z,99.90
2022-08-30T06:02:46.058Z,99.90
2022-08-30T06:05:14.645Z,99.90
2022-08-30T06:07:43.535Z,99.90
2022-08-30T06:10:12.537Z,99.90
2022-08-30T06:12:40.828Z,99.90
2022-08-30T06:15:09.036Z,99.90
2022-08-30T06:17:36.842Z,99.90
2022-08-30T06:20:04.806Z,99.90
2022-08-30T06:22:32.451Z,99.90
2022-08-30T06:25:00.229Z,99.90
2022-08-30T06:27:27.972Z,99.90
2022-08-30T06:29:55.592Z,99.90
2022-08-30T06:32:23.283Z,99.90
2022-08-30T06:34:50.930Z,99.90
2022-08-30T06:37:21.944Z,99.90
2022-08-30T06:39:59.923Z,99.90
2022-08-30T06:42:32.245Z,99.90
2022-08-30T06:45:01.845Z,99.90
2022-08-30T06:47:29.855Z,99.90
2022-08-30T06:49:58.308Z,99.90
2022-08-30T06:52:26.725Z,99.90
2022-08-30T06:54:58.373Z,99.90
2022-08-30T06:57:26.888Z,99.90
2022-08-30T06:59:58.509Z,99.90
2022-08-30T07:02:26.878Z,99.90
2022-08-30T07:04:54.653Z,99.90
2022-08-30T07:07:23.226Z,99.90
2022-08-30T07:09:50.974Z,99.90
2022-08-30T07:12:18.796Z,99.90
2022-08-30T07:14:46.560Z,99.90
2022-08-30T07:17:34.890Z,99.90
2022-08-30T07:20:05.038Z,99.90
2022-08-30T07:22:34.000Z,99.90
2022-08-30T07:25:02.773Z,99.90
2022-08-30T07:27:31.510Z,99.90
2022-08-30T07:29:59.484Z,99.90
2022-08-30T07:32:27.594Z,99.90
2022-08-30T07:34:56.746Z,99.90
2022-08-30T07:37:24.641Z,99.90
2022-08-30T07:39:52.511Z,99.90
2022-08-30T07:42:20.557Z,99.90
2022-08-30T07:44:48.476Z,99.90
2022-08-30T07:47:16.994Z,99.40
2022-08-30T07:49:44.851Z,99.10
2022-08-30T07:52:12.805Z,98.70
2022-08-30T07:54:41.097Z,98.10
2022-08-30T07:57:09.525Z,97.60
2022-08-30T07:59:37.156Z,97.40
2022-08-30T08:02:04.877Z,97.00
2022-08-30T08:04:33.251Z,96.50
2022-08-30T08:07:00.963Z,96.30
2022-08-30T08:09:28.687Z,95.80
2022-08-30T08:11:56.751Z,95.30
2022-08-30T08:14:24.451Z,94.60
2022-08-30T08:16:52.307Z,94.30
2022-08-30T08:19:20.445Z,93.90
2022-08-30T08:21:52.751Z,93.50
2022-08-30T08:24:27.918Z,92.90
2022-08-30T08:26:55.721Z,92.40
2022-08-30T08:29:23.696Z,92.10
2022-08-30T08:31:51.409Z,92.00
2022-08-30T08:34:19.354Z,91.70
2022-08-30T08:36:48.991Z,91.70
2022-08-30T08:39:18.097Z,91.70
2022-08-30T08:42:16.316Z,91.60
2022-08-30T08:45:19.105Z,91.30
2022-08-30T08:48:09.625Z,90.70
2022-08-30T08:51:02.459Z,90.90
2022-08-30T08:53:46.493Z,90.90
2022-08-30T08:56:17.808Z,90.50
2022-08-30T08:58:52.052Z,90.40
2022-08-30T09:01:24.231Z,90.00
2022-08-30T09:03:52.386Z,89.50
2022-08-30T09:06:45.737Z,88.70
2022-08-30T09:09:14.549Z,87.00
2022-08-30T09:11:44.486Z,86.50
2022-08-30T09:14:21.796Z,85.40
2022-08-30T09:17:13.586Z,83.70
2022-08-30T09:19:46.645Z,83.30
2022-08-30T09:22:32.547Z,82.30
2022-08-30T09:25:11.076Z,81.20
2022-08-30T09:27:42.514Z,79.70
2022-08-30T09:30:14.836Z,77.30
2022-08-30T09:33:04.471Z,74.40
2022-08-30T09:35:42.528Z,75.00
2022-08-30T09:38:26.551Z,72.40
2022-08-30T09:40:58.747Z,69.40
2022-08-30T09:43:30.065Z,69.50
2022-08-30T09:46:00.847Z,68.70
2022-08-30T09:48:44.953Z,67.50
2022-08-30T09:51:15.169Z,65.60
2022-08-30T09:54:18.751Z,64.40
2022-08-30T09:56:56.123Z,64.10
2022-08-30T09:59:23.525Z,64.40
2022-08-30T10:01:57.030Z,62.40
2022-08-30T10:04:45.082Z,61.90
2022-08-30T10:07:29.006Z,60.30
2022-08-30T10:10:16.685Z,60.40
2022-08-30T10:12:59.685Z,61.00
2022-08-30T10:15:40.812Z,60.20
2022-08-30T10:18:19.351Z,59.00
2022-08-30T10:21:09.153Z,57.80
2022-08-30T10:24:09.934Z,57.10
2022-08-30T10:26:49.923Z,56.10
2022-08-30T10:29:29.672Z,55.60
2022-08-30T10:32:10.719Z,53.90
2022-08-30T10:35:01.291Z,51.80
2022-08-30T10:37:32.123Z,51.70
2022-08-30T10:40:25.766Z,51.50
2022-08-30T10:42:56.747Z,50.90
2022-08-30T10:45:25.665Z,51.40
2022-08-30T10:48:06.508Z,51.20
2022-08-30T10:50:44.054Z,52.20
2022-08-30T10:53:28.255Z,52.40
2022-08-30T10:55:58.948Z,52.10
2022-08-30T10:58:26.930Z,52.40
2022-08-30T11:01:07.888Z,52.80
2022-08-30T11:04:02.646Z,51.80
2022-08-30T11:06:53.969Z,50.80
2022-08-30T11:09:43.353Z,49.80
2022-08-30T11:12:19.743Z,48.80
2022-08-30T11:14:47.668Z,48.30
2022-08-30T11:17:37.977Z,48.40
2022-08-30T11:20:21.182Z,47.70
2022-08-30T11:23:16.194Z,47.80
2022-08-30T11:26:16.902Z,47.60
2022-08-30T11:28:48.362Z,47.50
2022-08-30T11:31:22.528Z,48.10
2022-08-30T11:33:54.181Z,48.30
2022-08-30T11:36:28.664Z,48.70
2022-08-30T11:39:07.945Z,48.80
2022-08-30T11:41:43.175Z,49.70
2022-08-30T11:44:22.585Z,49.20
2022-08-30T11:46:55.332Z,47.50
2022-08-30T11:49:31.206Z,46.40
2022-08-30T11:52:27.684Z,46.00
2022-08-30T11:55:18.625Z,45.40
2022-08-30T11:58:00.334Z,46.00
2022-08-30T12:00:31.498Z,46.30
2022-08-30T12:03:06.756Z,46.60
2022-08-30T12:05:40.938Z,47.10
2022-08-30T12:08:33.483Z,46.50
2022-08-30T12:11:12.002Z,46.00
2022-08-30T12:13:42.341Z,45.90
2022-08-30T12:16:19.741Z,44.80
2022-08-30T12:18:49.393Z,44.00
2022-08-30T12:21:20.056Z,42.40
2022-08-30T12:26:42.816Z,40.80
2022-08-30T12:29:22.677Z,40.10
2022-08-30T12:31:52.064Z,39.90
2022-08-30T12:34:27.337Z,39.60
2022-08-30T12:37:10.807Z,38.90
2022-08-30T12:39:41.464Z,37.70
2022-08-30T12:42:24.096Z,37.90
2022-08-30T12:44:59.413Z,37.60
2022-08-30T12:47:30.105Z,37.20
2022-08-30T12:49:58.488Z,36.70
2022-08-30T12:52:26.468Z,36.70
2022-08-30T12:55:17.156Z,37.50
2022-08-30T12:58:00.641Z,37.10
2022-08-30T13:00:39.858Z,37.60
2022-08-30T13:03:36.974Z,38.00
2022-08-30T13:06:08.042Z,37.80
2022-08-30T13:08:45.812Z,38.10
2022-08-30T13:11:29.541Z,38.00
2022-08-30T13:14:34.457Z,37.40
2022-08-30T13:17:20.913Z,37.90
2022-08-30T13:20:02.962Z,38.30
2022-08-30T13:22:34.567Z,38.30
2022-08-30T13:25:03.902Z,39.00
2022-08-30T13:27:36.998Z,39.20
2022-08-30T13:30:14.832Z,39.00
2022-08-30T13:32:43.340Z,37.80
2022-08-30T13:35:12.187Z,37.60
2022-08-30T13:37:49.858Z,37.50
2022-08-30T13:40:20.514Z,37.70
2022-08-30T13:42:49.417Z,38.30
2022-08-30T13:48:07.062Z,39.40
2022-08-30T13:50:34.662Z,39.30
2022-08-30T13:53:02.300Z,39.60
2022-08-30T13:55:29.889Z,40.30
2022-08-30T13:57:58.036Z,41.00
2022-08-30T14:00:26.586Z,41.60
2022-08-30T14:02:59.993Z,42.00
2022-08-30T14:05:49.485Z,42.50
2022-08-30T14:11:16.122Z,41.90
2022-08-30T14:16:36.950Z,40.00
2022-08-30T14:19:04.852Z,38.50
2022-08-30T14:21:33.484Z,37.60
2022-08-30T14:24:01.276Z,36.20
2022-08-30T14:26:33.640Z,36.60
2022-08-30T14:29:05.382Z,37.00
2022-08-30T14:31:38.068Z,38.00
2022-08-30T14:34:07.562Z,39.20
2022-08-30T14:36:37.989Z,40.10
2022-08-30T14:39:09.373Z,40.90
2022-08-30T14:41:43.953Z,41.80
2022-08-30T14:44:13.325Z,42.30
2022-08-30T14:46:41.901Z,43.00
2022-08-30T14:49:12.194Z,43.60
2022-08-30T14:51:40.471Z,44.30
2022-08-30T14:54:09.316Z,44.40
2022-08-30T14:56:39.241Z,45.00
2022-08-30T14:59:07.462Z,45.50
2022-08-30T15:01:37.253Z,45.90
2022-08-30T15:04:07.577Z,46.50
2022-08-30T15:06:36.458Z,46.80
2022-08-30T15:09:06.305Z,47.20
2022-08-30T15:11:34.590Z,47.40
2022-08-30T15:14:03.267Z,47.70
2022-08-30T15:16:35.049Z,47.90
2022-08-30T15:19:04.149Z,48.20
2022-08-30T15:21:34.965Z,48.50
2022-08-30T15:24:05.336Z,48.60
2022-08-30T15:26:33.751Z,49.00
2022-08-30T15:29:01.629Z,49.10
2022-08-30T15:31:31.873Z,49.20
2022-08-30T15:34:00.312Z,49.40
2022-08-30T15:36:29.965Z,49.40
2022-08-30T15:38:59.946Z,49.60
2022-08-30T15:41:28.888Z,49.60
2022-08-30T15:43:58.473Z,49.60
2022-08-30T15:46:32.335Z,49.70
2022-08-30T15:49:05.487Z,49.80
2022-08-30T15:51:41.701Z,49.80
2022-08-30T15:54:12.473Z,50.10
2022-08-30T15:56:40.484Z,50.20
2022-08-30T15:59:10.239Z,50.60
2022-08-30T16:01:38.411Z,50.70
2022-08-30T16:04:06.250Z,50.50
2022-08-30T16:06:37.314Z,50.00
2022-08-30T16:09:07.474Z,49.50
2022-08-30T16:11:36.062Z,48.80
2022-08-30T16:14:05.203Z,48.30
2022-08-30T16:16:33.179Z,47.50
2022-08-30T16:19:00.780Z,47.20
2022-08-30T16:21:30.934Z,47.10
2022-08-30T16:24:00.809Z,47.00
2022-08-30T16:26:30.395Z,46.80
2022-08-30T16:28:58.907Z,46.00
2022-08-30T16:31:28.281Z,46.10
2022-08-30T16:34:03.629Z,45.90
2022-08-30T16:36:32.970Z,46.10
2022-08-30T16:39:00.968Z,46.80
2022-08-30T16:41:28.967Z,46.80
2022-08-30T16:44:00.659Z,47.10
2022-08-30T16:46:28.890Z,47.50
2022-08-30T16:49:02.236Z,47.90
2022-08-30T16:51:32.183Z,48.50
2022-08-30T16:54:02.785Z,49.00
2022-08-30T16:56:32.542Z,49.40
2022-08-30T16:59:03.162Z,49.70
2022-08-30T17:01:34.933Z,50.10
2022-08-30T17:04:04.239Z,50.60
2022-08-30T17:06:32.897Z,50.70
2022-08-30T17:09:04.313Z,50.90
2022-08-30T17:11:33.569Z,50.90
2022-08-30T17:14:01.740Z,51.10
2022-08-30T17:16:30.144Z,51.40
2022-08-30T17:19:00.582Z,51.80
2022-08-30T17:21:29.870Z,52.00
2022-08-30T17:24:02.326Z,52.20
2022-08-30T17:26:33.567Z,52.60
2022-08-30T17:29:01.487Z,52.80
2022-08-30T17:31:31.157Z,53.00
2022-08-30T17:34:03.526Z,53.20
2022-08-30T17:36:35.536Z,53.50
2022-08-30T17:39:11.235Z,53.60
2022-08-30T17:41:49.985Z,53.70
2022-08-30T17:44:32.416Z,53.90
2022-08-30T17:47:00.659Z,54.10
2022-08-30T17:52:39.884Z,54.70
2022-08-30T17:55:09.210Z,55.00
2022-08-30T17:57:36.967Z,55.40
2022-08-30T18:00:07.462Z,55.80
2022-08-30T18:02:35.679Z,56.00
2022-08-30T18:05:05.886Z,56.30
2022-08-30T18:07:33.981Z,56.70
2022-08-30T18:10:01.809Z,57.10
2022-08-30T18:12:29.688Z,57.50
2022-08-30T18:15:02.039Z,57.70
2022-08-30T18:17:42.434Z,58.10
2022-08-30T18:20:10.766Z,58.60
2022-08-30T18:22:39.474Z,59.10
2022-08-30T18:25:08.626Z,59.50
2022-08-30T18:27:39.068Z,59.80
2022-08-30T18:30:08.132Z,60.30
2022-08-30T18:32:39.385Z,60.30
2022-08-30T18:35:09.212Z,60.60
2022-08-30T18:37:40.209Z,61.10
2022-08-30T18:40:09.836Z,61.60
2022-08-30T18:42:37.920Z,61.90
2022-08-30T18:45:14.695Z,62.20
2022-08-30T18:47:43.670Z,62.60
2022-08-30T18:50:12.489Z,63.00
2022-08-30T18:52:40.285Z,63.60
2022-08-30T18:55:08.701Z,64.20
2022-08-30T18:57:38.128Z,64.80
2022-08-30T19:00:06.999Z,65.40
2022-08-30T19:02:34.823Z,65.80
2022-08-30T19:05:03.446Z,66.10
2022-08-30T19:07:37.534Z,66.60
2022-08-30T19:10:08.208Z,67.20
2022-08-30T19:12:41.138Z,68.10
2022-08-30T19:15:10.677Z,68.70
2022-08-30T19:17:41.432Z,69.30
2022-08-30T19:20:10.521Z,69.70
2022-08-30T19:23:08.767Z,70.40
2022-08-30T19:25:25.308Z,71.10
2022-08-30T19:27:52.935Z,71.80
2022-08-30T19:30:29.410Z,72.40
2022-08-30T19:32:56.478Z,73.20
2022-08-30T19:35:26.829Z,73.90
2022-08-30T19:37:58.660Z,74.60
2022-08-30T19:40:26.421Z,75.30
2022-08-30T19:42:54.133Z,76.00
2022-08-30T19:45:23.080Z,76.90
2022-08-30T19:47:53.199Z,77.70
2022-08-30T19:50:22.716Z,78.50
2022-08-30T19:52:54.712Z,79.10
2022-08-30T19:55:28.351Z,79.70
2022-08-30T19:57:58.373Z,80.40
2022-08-30T20:00:26.022Z,80.90
2022-08-30T20:02:53.681Z,81.60
2022-08-30T20:05:23.139Z,82.10
2022-08-30T20:07:51.976Z,82.60
2022-08-30T20:10:20.680Z,83.50
2022-08-30T20:12:50.274Z,83.90
2022-08-30T20:15:18.609Z,84.30
2022-08-30T20:18:05.404Z,84.80
2022-08-30T20:20:30.082Z,85.10
2022-08-30T20:22:57.749Z,85.30
2022-08-30T20:25:25.390Z,85.60
2022-08-30T20:27:55.221Z,85.60
2022-08-30T20:30:22.966Z,85.80
2022-08-30T20:32:52.575Z,85.80
2022-08-30T20:35:20.385Z,85.90
2022-08-30T20:37:49.315Z,86.10
2022-08-30T20:40:17.413Z,86.10
2022-08-30T20:42:46.404Z,86.10
2022-08-30T20:45:17.182Z,86.20
2022-08-30T20:47:45.328Z,86.40
2022-08-30T20:50:15.739Z,86.60
2022-08-30T20:52:44.362Z,86.90
2022-08-30T20:55:14.159Z,87.30
2022-08-30T20:57:41.850Z,87.70
2022-08-30T21:00:12.389Z,87.90
2022-08-30T21:02:47.034Z,88.20
2022-08-30T21:05:15.603Z,88.60
2022-08-30T21:07:44.589Z,88.90
2022-08-30T21:10:13.198Z,89.10
2022-08-30T21:12:42.818Z,89.60
2022-08-30T21:15:34.019Z,89.90
2022-08-30T21:17:41.959Z,90.10
2022-08-30T21:20:10.787Z,90.20
2022-08-30T21:22:39.106Z,90.30
2022-08-30T21:25:06.906Z,90.60
2022-08-30T21:27:34.920Z,90.90
2022-08-30T21:30:02.936Z,91.00
2022-08-30T21:32:30.714Z,91.20
2022-08-30T21:35:16.926Z,91.50
2022-08-30T21:37:44.521Z,91.80
2022-08-30T21:40:14.936Z,92.20
2022-08-30T21:42:48.750Z,92.20
2022-08-30T21:45:16.627Z,92.50
2022-08-30T21:47:44.318Z,92.80
2022-08-30T21:50:12.067Z,92.90
2022-08-30T21:52:39.660Z,93.10
2022-08-30T21:55:08.110Z,93.30
2022-08-30T21:57:36.143Z,93.60
2022-08-30T22:00:07.319Z,93.80
2022-08-30T22:02:35.297Z,94.00
2022-08-30T22:05:03.460Z,94.20
2022-08-30T22:07:31.029Z,94.40
2022-08-30T22:09:58.887Z,94.60
2022-08-30T22:12:27.149Z,94.90
2022-08-30T22:14:55.077Z,95.00
2022-08-30T22:17:23.309Z,95.30
2022-08-30T22:19:50.880Z,95.50
2022-08-30T22:22:18.461Z,95.70
2022-08-30T22:27:14.549Z,96.00
2022-08-30T22:29:42.533Z,96.20
2022-08-30T22:32:10.271Z,96.50
2022-08-30T22:34:38.782Z,96.70
2022-08-30T22:37:08.066Z,96.90
2022-08-30T22:39:35.785Z,97.20
2022-08-30T22:42:03.632Z,97.20
2022-08-30T22:47:09.377Z,97.60
2022-08-30T22:49:36.990Z,97.80
2022-08-30T22:52:04.606Z,97.90
2022-08-30T22:54:33.282Z,98.30
2022-08-30T22:57:00.978Z,98.20
2022-08-30T22:59:32.784Z,98.50
2022-08-30T23:02:00.800Z,98.80
2022-08-30T23:04:28.442Z,99.00
2022-08-30T23:06:56.019Z,99.30
2022-08-30T23:09:23.676Z,99.70
2022-08-30T23:11:51.213Z,99.70
2022-08-30T23:16:47.977Z,99.90
2022-08-30T23:19:16.998Z,99.90
2022-08-30T23:24:31.016Z,99.90
2022-08-30T23:27:17.095Z,99.90
2022-08-30T23:30:03.357Z,99.90
2022-08-30T23:35:36.433Z,99.90
2022-08-30T23:38:24.248Z,99.90
2022-08-30T23:41:10.484Z,99.90
2022-08-30T23:43:56.698Z,99.90
2022-08-30T23:46:42.887Z,99.90
2022-08-30T23:49:28.960Z,99.90
2022-08-30T23:52:15.059Z,99.90
2022-08-30T23:55:01.121Z,99.90
2022-08-30T23:57:47.212Z,99.90
